Terminal Aerodrome Forecast
Issued by NWS

Home | Current Version | Previous Version | Text Only | Print | Product List | Glossary On
Versions: 1 2 3 4 5 6 7 8 9 10 11 12
883
FTUS45 KABQ 171126
TAFLVS
TAF
KLVS 171126Z 1712/1812 VRB05KT P6SM FEW250
     FM171800 20011KT P6SM FEW250
     FM180300 35005KT P6SM FEW250=

USA.gov is the U.S. government's official web portal to all federal, state and local government web resources and services.